Time;durP1;ratioP1;P1;durP2;ratioP2;P2;SDS_P1;SDS_P2;PMS_P1;PMS_P2;Temp;Humidity;BMP_temperature;BMP_pressure;BME280_temperature;BME280_humidity;BME280_pressure;Samples;Min_cycle;Max_cycle;Signal;HPM_P1;HPM_P2
2023/10/05 00:00:38;;;;;;;5.53;3.47;;;;;;;8.39;100.00;97568.22;5008836;28;20046;-67
2023/10/05 00:03:05;;;;;;;5.53;3.67;;;;;;;8.52;100.00;97566.41;5006948;28;20045;-65
2023/10/05 00:05:35;;;;;;;10.52;4.75;;;;;;;8.51;100.00;97562.06;5011284;28;20484;-67
2023/10/05 00:08:03;;;;;;;10.75;3.95;;;;;;;8.54;100.00;97562.22;5012488;28;20053;-67
2023/10/05 00:10:30;;;;;;;7.60;3.92;;;;;;;8.50;100.00;97563.19;5003382;28;20050;-68
2023/10/05 00:12:59;;;;;;;5.38;3.45;;;;;;;8.66;100.00;97561.50;5015629;28;20470;-67
2023/10/05 00:15:27;;;;;;;6.50;3.63;;;;;;;8.72;100.00;97575.75;5017027;28;20041;-67
2023/10/05 00:17:54;;;;;;;6.68;3.50;;;;;;;8.71;100.00;97560.47;5003809;28;20041;-67
2023/10/05 00:20:33;;;;;;;6.25;3.63;;;;;;;8.69;100.00;97562.75;5005512;28;20054;-67
2023/10/05 00:23:01;;;;;;;7.97;3.47;;;;;;;8.68;100.00;97570.16;5012211;28;20046;-67
2023/10/05 00:25:28;;;;;;;8.95;3.97;;;;;;;8.68;100.00;97570.16;4999918;28;20185;-66
2023/10/05 00:27:55;;;;;;;9.50;3.75;;;;;;;8.67;100.00;97579.47;5013491;28;20037;-66
2023/10/05 00:30:21;;;;;;;8.00;3.60;;;;;;;8.71;100.00;97564.00;5007296;28;20519;-68
2023/10/05 00:32:57;;;;;;;9.40;3.40;;;;;;;8.74;100.00;97570.75;5009152;28;20042;-67
2023/10/05 00:35:26;;;;;;;13.35;3.70;;;;;;;8.70;100.00;97575.28;4999329;28;20512;-68
2023/10/05 00:37:52;;;;;;;;;;;;;;;8.66;100.00;97571.59;5013429;28;20407;-67
2023/10/05 00:43:03;;;;;;;6.60;3.42;;;;;;;8.54;100.00;97575.88;5015096;28;20563;-68
2023/10/05 00:45:31;;;;;;;8.25;3.03;;;;;;;8.46;100.00;97567.72;5012167;28;20061;-68
2023/10/05 00:48:08;;;;;;;8.90;3.72;;;;;;;8.38;100.00;97559.22;5013860;28;20516;-68
2023/10/05 00:50:35;;;;;;;8.18;3.10;;;;;;;8.16;100.00;97565.00;5001854;28;20050;-68
2023/10/05 00:53:03;;;;;;;6.75;3.30;;;;;;;7.98;100.00;97565.09;5015877;28;20086;-67
2023/10/05 00:55:29;;;;;;;11.80;3.50;;;;;;;8.07;100.00;97562.31;5013456;28;20176;-67
2023/10/05 00:57:54;;;;;;;6.70;4.00;;;;;;;8.18;100.00;97568.19;5017262;28;20085;-67
2023/10/05 01:00:27;;;;;;;6.88;3.42;;;;;;;8.22;100.00;97567.19;5018477;28;20103;-68
2023/10/05 01:05:49;;;;;;;6.85;3.65;;;;;;;7.89;100.00;97558.88;5020067;28;20048;-68
2023/10/05 01:08:16;;;;;;;9.32;3.58;;;;;;;8.01;100.00;97558.16;5012318;28;20100;-67
2023/10/05 01:10:44;;;;;;;6.90;3.55;;;;;;;8.12;100.00;97561.31;5016353;28;20037;-67
2023/10/05 01:13:30;;;;;;;9.00;4.15;;;;;;;8.06;100.00;97557.97;5011305;28;20052;-67
2023/10/05 01:15:57;;;;;;;10.00;3.95;;;;;;;8.10;100.00;97558.91;5006664;28;20438;-67
2023/10/05 01:18:25;;;;;;;8.27;3.80;;;;;;;8.07;100.00;97562.31;5005576;28;20064;-67
2023/10/05 01:20:51;;;;;;;7.63;3.72;;;;;;;7.89;100.00;97563.53;5019586;28;20049;-67
2023/10/05 01:23:18;;;;;;;7.07;3.78;;;;;;;7.79;100.00;97554.56;5019151;28;20046;-67
2023/10/05 01:25:43;;;;;;;9.25;3.67;;;;;;;7.89;100.00;97555.34;5025249;28;20043;-67
2023/10/05 01:28:08;;;;;;;9.75;3.53;;;;;;;7.76;100.00;97552.50;5015210;28;20044;-67
2023/10/05 01:30:38;;;;;;;8.38;3.65;;;;;;;7.64;100.00;97549.66;5015547;28;20049;-67
2023/10/05 01:33:04;;;;;;;6.83;3.40;;;;;;;7.69;100.00;97537.75;5012896;28;20151;-67
2023/10/05 01:35:29;;;;;;;9.00;3.72;;;;;;;7.91;100.00;97547.63;5013552;28;20774;-67
2023/10/05 01:37:55;;;;;;;10.13;4.00;;;;;;;7.99;100.00;97549.50;5027651;28;20052;-68
2023/10/05 01:42:47;;;;;;;8.02;3.60;;;;;;;8.06;100.00;97562.63;5016490;28;20045;-67
2023/10/05 01:45:16;;;;;;;8.60;3.72;;;;;;;8.09;100.00;97559.25;5012161;28;20046;-67
2023/10/05 01:47:45;;;;;;;7.25;3.45;;;;;;;8.07;100.00;97565.03;5011753;28;20392;-67
2023/10/05 01:50:27;;;;;;;8.73;3.37;;;;;;;8.02;100.00;97563.28;5011726;28;20057;-66
2023/10/05 01:52:57;;;;;;;7.30;3.72;;;;;;;7.94;100.00;97553.22;5020881;28;20041;-67
2023/10/05 01:55:24;;;;;;;;;;;;;;;7.46;100.00;97541.53;5007957;28;20419;-72
2023/10/05 01:57:50;;;;;;;9.35;3.83;;;;;;;7.31;100.00;97543.97;5016560;28;20376;-66
2023/10/05 02:00:20;;;;;;;6.70;3.72;;;;;;;7.17;100.00;97547.72;5014230;28;20063;-67
2023/10/05 02:02:46;;;;;;;;;;;;;;;7.05;100.00;97542.91;5016390;28;20038;-67
2023/10/05 02:05:13;;;;;;;9.73;4.75;;;;;;;7.30;100.00;97543.19;5007609;28;20397;-67
2023/10/05 02:07:39;;;;;;;7.35;4.05;;;;;;;7.32;100.00;97542.88;5013750;28;20057;-66
2023/10/05 02:10:10;;;;;;;5.82;3.90;;;;;;;7.45;100.00;97536.41;5004396;28;20041;-65
2023/10/05 02:12:36;;;;;;;6.95;3.90;;;;;;;7.56;100.00;97524.03;5013927;28;20048;-66
2023/10/05 02:15:16;;;;;;;7.80;3.58;;;;;;;7.68;100.00;97528.00;5012834;28;20499;-66
2023/10/05 02:17:45;;;;;;;9.57;3.78;;;;;;;7.68;100.00;97534.25;5004133;28;20504;-67
2023/10/05 02:20:25;;;;;;;10.63;4.05;;;;;;;7.76;100.00;97532.59;5009375;28;20045;-66
2023/10/05 02:22:50;;;;;;;8.93;3.53;;;;;;;7.82;100.00;97537.56;5011230;28;20452;-66
2023/10/05 02:25:21;;;;;;;11.63;3.47;;;;;;;7.88;100.00;97534.66;5006308;28;20084;-65
2023/10/05 02:27:47;;;;;;;9.52;4.15;;;;;;;7.82;100.00;97534.81;5003785;28;20062;-67
2023/10/05 02:30:14;;;;;;;7.18;3.35;;;;;;;7.80;100.00;97534.34;5006676;28;20125;-67
2023/10/05 02:32:40;;;;;;;6.85;3.45;;;;;;;7.78;100.00;97535.81;5013920;28;20608;-67
2023/10/05 02:35:24;;;;;;;6.38;3.22;;;;;;;7.79;100.00;97531.97;4995007;28;20133;-66
2023/10/05 02:37:52;;;;;;;8.05;3.25;;;;;;;7.75;100.00;97529.09;5001942;28;20052;-68
2023/10/05 02:40:19;;;;;;;9.25;3.90;;;;;;;7.44;100.00;97527.44;5006006;28;20115;-68
2023/10/05 02:42:46;;;;;;;6.75;4.22;;;;;;;6.88;100.00;97530.13;5014685;28;20037;-68
2023/10/05 02:45:11;;;;;;;7.38;4.00;;;;;;;6.73;100.00;97524.38;5009964;28;20099;-68
2023/10/05 02:47:37;;;;;;;12.52;4.35;;;;;;;6.26;100.00;97514.88;5011527;28;20053;-67
2023/10/05 02:50:05;;;;;;;9.40;4.10;;;;;;;6.19;100.00;97511.84;5006098;28;20041;-68
2023/10/05 02:52:33;;;;;;;6.75;4.07;;;;;;;6.21;100.00;97506.09;5013400;28;20385;-68
2023/10/05 02:54:58;;;;;;;12.82;5.07;;;;;;;6.08;100.00;97500.47;4998655;28;20069;-68
2023/10/05 02:57:25;;;;;;;8.27;3.88;;;;;;;6.05;100.00;97512.00;5005035;28;20535;-67
2023/10/05 02:59:51;;;;;;;9.27;4.20;;;;;;;6.26;100.00;97511.38;5022667;28;20057;-68
2023/10/05 03:02:18;;;;;;;6.85;3.85;;;;;;;6.44;100.00;97506.75;5010093;28;20107;-68
2023/10/05 03:04:45;;;;;;;8.82;4.20;;;;;;;6.62;100.00;97508.34;5012586;28;20034;-67
2023/10/05 03:07:15;;;;;;;5.88;3.55;;;;;;;6.73;100.00;97511.53;5006142;28;20048;-67
2023/10/05 03:09:46;;;;;;;6.78;3.90;;;;;;;6.95;100.00;97505.13;5014792;28;20052;-67
2023/10/05 03:12:12;;;;;;;10.27;3.88;;;;;;;6.92;100.00;97513.94;5014399;28;20049;-68
2023/10/05 03:14:38;;;;;;;5.72;3.35;;;;;;;6.99;100.00;97519.69;5012043;28;20045;-68
2023/10/05 03:17:07;;;;;;;7.25;3.47;;;;;;;7.10;100.00;97512.00;5013264;28;20048;-67
2023/10/05 03:19:36;;;;;;;6.43;3.63;;;;;;;7.06;100.00;97520.00;5017077;28;20343;-67
2023/10/05 03:22:05;;;;;;;6.73;3.43;;;;;;;7.06;100.00;97527.38;5009977;28;20046;-67
2023/10/05 03:24:33;;;;;;;6.33;3.80;;;;;;;7.07;100.00;97518.06;5011649;28;20471;-67
2023/10/05 03:27:02;;;;;;;13.13;3.90;;;;;;;6.93;100.00;97517.44;5013641;28;20050;-68
2023/10/05 03:29:28;;;;;;;8.15;3.60;;;;;;;7.00;100.00;97518.56;5000665;28;20508;-68
2023/10/05 03:31:55;;;;;;;7.38;3.30;;;;;;;7.06;100.00;97527.38;5011227;28;20077;-67
2023/10/05 03:34:25;;;;;;;7.30;3.40;;;;;;;7.10;100.00;97524.81;5006211;28;20053;-68
2023/10/05 03:36:51;;;;;;;7.40;3.35;;;;;;;7.05;100.00;97525.78;5010504;28;20107;-67
2023/10/05 03:39:17;;;;;;;8.10;3.55;;;;;;;7.06;100.00;97535.56;5005535;28;20536;-67
2023/10/05 03:41:43;;;;;;;6.00;3.13;;;;;;;7.06;100.00;97532.84;5009351;28;20485;-68
2023/10/05 03:44:15;;;;;;;6.30;3.58;;;;;;;7.04;100.00;97530.44;5005947;28;20061;-66
2023/10/05 03:46:42;;;;;;;14.18;3.60;;;;;;;7.06;100.00;97533.63;5012730;28;20054;-67
2023/10/05 03:49:07;;;;;;;7.75;4.15;;;;;;;7.12;100.00;97531.53;5009282;28;20485;-67
2023/10/05 03:51:33;;;;;;;7.22;3.13;;;;;;;7.01;100.00;97530.28;5012281;28;20041;-68
2023/10/05 03:53:59;;;;;;;9.95;3.42;;;;;;;6.85;100.00;97532.69;5007131;28;20156;-67
2023/10/05 03:56:27;;;;;;;6.85;4.10;;;;;;;6.64;100.00;97527.88;5007422;28;20467;-67
2023/10/05 03:58:52;;;;;;;8.82;3.85;;;;;;;6.56;100.00;97527.91;5008291;28;20041;-67
2023/10/05 04:01:18;;;;;;;6.22;3.92;;;;;;;6.42;100.00;97519.88;5005228;28;20049;-67
2023/10/05 04:03:48;;;;;;;13.27;4.00;;;;;;;6.35;100.00;97523.06;5010317;28;20052;-67
2023/10/05 04:06:17;;;;;;;;;;;;;;;6.44;100.00;97518.44;5004496;28;20505;-67
2023/10/05 04:08:51;;;;;;;7.07;3.88;;;;;;;6.31;100.00;97531.06;5007189;28;19931;-67
2023/10/05 04:11:18;;;;;;;10.73;3.80;;;;;;;6.38;100.00;97525.16;5010746;28;20045;-69
2023/10/05 04:13:45;;;;;;;8.05;4.15;;;;;;;6.58;100.00;97522.94;5009297;28;20042;-68
2023/10/05 04:16:33;;;;;;;8.45;3.53;;;;;;;6.70;100.00;97523.09;4994784;28;20484;-68
2023/10/05 04:18:59;;;;;;;11.07;3.70;;;;;;;6.78;100.00;97527.72;5006520;28;20569;-68
2023/10/05 04:21:25;;;;;;;6.88;3.83;;;;;;;6.90;100.00;97532.53;5006392;28;20053;-68
2023/10/05 04:23:58;;;;;;;6.75;4.05;;;;;;;7.04;100.00;97532.34;5009687;28;20411;-67
2023/10/05 04:26:33;;;;;;;6.72;3.80;;;;;;;7.14;100.00;97528.47;5014012;28;20616;-67
2023/10/05 04:29:04;;;;;;;9.40;3.85;;;;;;;7.15;100.00;97524.63;5006484;28;20049;-67
2023/10/05 04:31:31;;;;;;;9.10;3.97;;;;;;;7.27;100.00;97524.75;5011339;28;20042;-67
2023/10/05 04:33:57;;;;;;;9.35;4.00;;;;;;;7.35;100.00;97523.94;5012786;28;20526;-67
2023/10/05 04:36:23;;;;;;;9.10;3.85;;;;;;;7.06;100.00;97520.00;5007765;28;20128;-68
2023/10/05 04:38:53;;;;;;;8.98;3.88;;;;;;;6.96;100.00;97530.44;5000874;28;20060;-67
2023/10/05 04:41:19;;;;;;;12.00;3.90;;;;;;;7.06;100.00;97525.44;5007610;28;20058;-67
2023/10/05 04:43:48;;;;;;;8.32;3.80;;;;;;;7.18;100.00;97530.22;5011326;28;20033;-67
2023/10/05 04:46:17;;;;;;;8.75;3.63;;;;;;;7.19;100.00;97533.75;5007572;28;20046;-67
2023/10/05 04:48:55;;;;;;;7.13;3.70;;;;;;;7.24;100.00;97525.44;5009890;28;20056;-67
2023/10/05 04:51:22;;;;;;;8.30;3.60;;;;;;;7.24;100.00;97526.22;5005153;28;20477;-68
2023/10/05 04:53:52;;;;;;;6.32;3.85;;;;;;;7.19;100.00;97533.75;5012613;28;20069;-66
2023/10/05 04:56:27;;;;;;;8.23;4.07;;;;;;;7.13;100.00;97530.41;5008155;28;20451;-67
2023/10/05 04:58:53;;;;;;;7.03;4.18;;;;;;;7.22;100.00;97536.66;5008299;28;20048;-67
2023/10/05 05:01:29;;;;;;;9.23;4.30;;;;;;;7.40;100.00;97537.41;5018808;28;20117;-67
2023/10/05 05:04:13;;;;;;;7.45;4.07;;;;;;;7.41;100.00;97538.19;5000406;28;20049;-67
2023/10/05 05:06:41;;;;;;;6.88;4.45;;;;;;;7.39;100.00;97543.97;5022503;28;20516;-67
2023/10/05 05:09:12;;;;;;;8.52;4.40;;;;;;;7.46;100.00;97548.94;5011103;28;20492;-65
2023/10/05 05:11:37;;;;;;;9.27;4.13;;;;;;;7.46;100.00;97551.66;5010092;28;20162;-66
2023/10/05 05:14:04;;;;;;;9.73;3.55;;;;;;;7.51;100.00;97556.09;5009301;28;20084;-65
2023/10/05 05:16:29;;;;;;;6.88;3.83;;;;;;;7.54;100.00;97558.19;5007381;28;20811;-66
2023/10/05 05:18:55;;;;;;;10.40;4.07;;;;;;;7.45;100.00;97560.94;5008104;28;20132;-67
2023/10/05 05:21:20;;;;;;;14.70;4.28;;;;;;;7.33;100.00;97566.25;5016292;28;20056;-67
2023/10/05 05:23:47;;;;;;;5.82;3.95;;;;;;;7.28;100.00;97559.06;5013329;28;20042;-66
2023/10/05 05:26:13;;;;;;;12.75;4.45;;;;;;;7.48;100.00;97552.13;5008571;28;20460;-68
2023/10/05 05:28:38;;;;;;;8.05;3.97;;;;;;;7.56;100.00;97559.47;5003406;28;20069;-67
2023/10/05 05:31:09;;;;;;;6.38;3.85;;;;;;;7.46;100.00;97563.34;5005468;28;20053;-66
2023/10/05 05:33:38;;;;;;;8.43;4.00;;;;;;;7.20;100.00;97562.59;5013767;28;20049;-68
2023/10/05 05:36:13;;;;;;;9.90;4.40;;;;;;;7.01;100.00;97560.22;5009084;28;20054;-67
2023/10/05 05:38:47;;;;;;;7.72;3.97;;;;;;;6.93;100.00;97561.81;5013242;28;20085;-69
2023/10/05 05:41:16;;;;;;;9.27;4.50;;;;;;;6.92;100.00;97556.72;5012927;28;20109;-69
2023/10/05 05:43:41;;;;;;;8.07;4.55;;;;;;;6.92;100.00;97556.72;5025868;28;20069;-69
2023/10/05 05:46:12;;;;;;;9.25;4.68;;;;;;;7.14;100.00;97564.69;5014220;28;20046;-69
2023/10/05 05:48:48;;;;;;;7.88;4.82;;;;;;;7.34;100.00;97570.59;5019736;28;20041;-68
2023/10/05 05:51:14;;;;;;;9.75;4.57;;;;;;;7.47;100.00;97564.13;5006396;28;20523;-69
2023/10/05 05:53:46;;;;;;;11.77;5.00;;;;;;;7.61;100.00;97563.94;5014138;28;20061;-68
2023/10/05 05:56:18;;;;;;;8.40;4.35;;;;;;;7.68;100.00;97561.50;5010062;28;20669;-69
2023/10/05 05:58:47;;;;;;;8.88;4.75;;;;;;;7.84;100.00;97557.13;5012878;28;20129;-69
2023/10/05 06:01:20;;;;;;;6.63;3.85;;;;;;;7.93;100.00;97559.00;5012397;28;20064;-69
2023/10/05 06:03:49;;;;;;;124.32;66.82;;;;;;;7.98;100.00;97558.84;5021120;28;20208;-69
2023/10/05 06:06:21;;;;;;;11.35;4.82;;;;;;;7.98;100.00;97554.16;5013978;28;20044;-68
2023/10/05 06:08:47;;;;;;;7.55;3.95;;;;;;;8.06;100.00;97554.47;5030988;28;20056;-69
2023/10/05 06:11:13;;;;;;;7.72;4.32;;;;;;;8.04;100.00;97561.03;4998701;28;20042;-68
2023/10/05 06:13:38;;;;;;;9.02;4.88;;;;;;;8.21;100.00;97560.16;5008680;28;20077;-68
2023/10/05 06:16:05;;;;;;;9.70;5.25;;;;;;;8.35;100.00;97559.88;5012192;28;20057;-68
2023/10/05 06:18:31;;;;;;;7.03;4.63;;;;;;;8.45;100.00;97558.75;5012048;28;20046;-68
2023/10/05 06:20:57;;;;;;;8.82;5.93;;;;;;;8.49;100.00;97556.16;5014423;28;20459;-69
2023/10/05 06:23:22;;;;;;;8.57;4.13;;;;;;;8.49;100.00;97562.41;5002437;28;20054;-69
2023/10/05 06:25:48;;;;;;;8.45;4.90;;;;;;;8.66;100.00;97568.88;5013356;28;20098;-69
2023/10/05 06:28:13;;;;;;;7.43;4.78;;;;;;;8.74;100.00;97568.03;5009715;28;20056;-69
2023/10/05 06:30:39;;;;;;;12.52;5.03;;;;;;;8.49;100.00;97562.41;5013788;28;20041;-69
2023/10/05 06:33:07;;;;;;;9.45;4.35;;;;;;;8.47;100.00;97558.41;5008492;28;20084;-67
2023/10/05 06:35:33;;;;;;;8.98;4.70;;;;;;;8.23;100.00;97559.81;5027452;28;20050;-68
2023/10/05 06:37:58;;;;;;;7.85;4.40;;;;;;;8.45;100.00;97556.03;5024738;28;20050;-69
2023/10/05 06:40:24;;;;;;;11.63;4.50;;;;;;;8.63;100.00;97564.88;5004314;28;20069;-69
2023/10/05 06:42:50;;;;;;;11.25;4.18;;;;;;;8.71;100.00;97558.53;5021695;28;20057;-69
2023/10/05 06:45:16;;;;;;;11.60;4.70;;;;;;;8.77;100.00;97565.41;5007891;28;20042;-67
2023/10/05 06:47:42;;;;;;;10.25;4.03;;;;;;;9.12;100.00;97562.38;5019553;28;20403;-68
2023/10/05 06:50:09;;;;;;;7.22;4.03;;;;;;;9.36;100.00;97566.31;4997744;28;20056;-67
2023/10/05 06:52:40;;;;;;;10.93;4.47;;;;;;;9.59;100.00;97571.41;5012896;28;20037;-67
2023/10/05 06:55:09;;;;;;;9.35;4.60;;;;;;;9.75;100.00;97564.94;5008617;28;20041;-68
2023/10/05 06:57:38;;;;;;;19.70;4.88;;;;;;;9.69;100.00;97560.84;5012494;28;20073;-68
2023/10/05 07:00:12;;;;;;;8.32;4.40;;;;;;;9.84;100.00;97567.56;4996436;28;20053;-67
2023/10/05 07:02:41;;;;;;;11.40;4.60;;;;;;;10.29;100.00;97571.34;5010339;28;20117;-68
2023/10/05 07:05:08;;;;;;;9.13;4.30;;;;;;;10.71;100.00;97582.88;5005730;28;20042;-68
2023/10/05 07:07:35;;;;;;;7.97;3.70;;;;;;;11.07;100.00;97594.88;5018218;28;20048;-68
2023/10/05 07:10:01;;;;;;;9.35;4.13;;;;;;;11.52;100.00;97595.69;5016728;28;20045;-68
2023/10/05 07:12:26;;;;;;;8.30;3.88;;;;;;;11.91;100.00;97606.16;5009753;28;20057;-68
2023/10/05 07:14:51;;;;;;;13.57;3.90;;;;;;;12.33;100.00;97602.84;5012737;28;20042;-68
2023/10/05 07:17:17;;;;;;;7.55;3.78;;;;;;;12.61;100.00;97606.28;5005349;28;20048;-68
2023/10/05 07:19:48;;;;;;;10.82;4.03;;;;;;;12.85;100.00;97622.88;5010868;28;20052;-68
2023/10/05 07:22:13;;;;;;;7.20;4.00;;;;;;;13.47;100.00;97618.31;5003069;28;20068;-68
2023/10/05 07:24:40;;;;;;;7.40;3.63;;;;;;;13.94;100.00;97630.22;5013321;28;20567;-69
2023/10/05 07:27:05;;;;;;;11.45;4.30;;;;;;;14.43;100.00;97634.97;5008314;28;20050;-68
2023/10/05 07:29:30;;;;;;;8.98;4.15;;;;;;;14.86;100.00;97643.16;5012853;28;20042;-69
2023/10/05 07:31:56;;;;;;;10.07;4.35;;;;;;;15.27;96.62;97646.06;5010432;28;20038;-69
2023/10/05 07:34:21;;;;;;;7.90;4.13;;;;;;;15.86;94.40;97636.13;5004223;28;20468;-69
2023/10/05 07:36:46;;;;;;;7.57;3.67;;;;;;;16.25;91.71;97629.38;5012498;28;20123;-70
2023/10/05 07:39:14;;;;;;;12.68;3.80;;;;;;;16.61;88.31;97638.75;5008551;28;20037;-69
2023/10/05 07:41:40;;;;;;;9.02;3.85;;;;;;;16.82;85.92;97627.06;5012915;28;20042;-70
2023/10/05 07:44:05;;;;;;;9.13;4.13;;;;;;;17.06;84.14;97633.16;5014975;28;20377;-69
2023/10/05 07:46:30;;;;;;;10.98;3.90;;;;;;;17.96;79.76;97637.09;5015393;28;20045;-69
2023/10/05 07:48:56;;;;;;;8.23;3.55;;;;;;;19.22;72.22;97650.16;5009342;28;20046;-68
2023/10/05 07:51:21;;;;;;;8.70;4.20;;;;;;;18.93;70.90;97647.44;5001464;28;20895;-68
2023/10/05 07:53:46;;;;;;;9.25;4.38;;;;;;;18.48;67.99;97647.06;5008468;28;20386;-68
2023/10/05 07:56:13;;;;;;;8.43;4.78;;;;;;;17.72;76.54;97640.56;4994945;28;20104;-68
2023/10/05 07:58:38;;;;;;;10.75;4.97;;;;;;;16.20;86.66;97633.28;5008205;28;20508;-68
2023/10/05 08:01:04;;;;;;;7.95;4.72;;;;;;;15.70;92.77;97637.50;4996084;28;20049;-67
2023/10/05 08:03:29;;;;;;;13.07;5.80;;;;;;;16.14;93.01;97642.31;5012086;28;20041;-69
2023/10/05 08:05:54;;;;;;;11.05;5.63;;;;;;;16.73;86.57;97640.44;5010462;28;20049;-66
2023/10/05 08:08:20;;;;;;;13.48;4.82;;;;;;;17.36;82.67;97637.66;5004113;28;20053;-70
2023/10/05 08:10:46;;;;;;;11.95;4.80;;;;;;;17.55;78.91;97631.00;5006923;28;20041;-68
2023/10/05 08:13:11;;;;;;;9.50;5.18;;;;;;;17.57;80.10;97650.78;4998159;28;20072;-70
2023/10/05 08:15:36;;;;;;;8.52;4.30;;;;;;;18.05;76.61;97644.25;5011905;28;20545;-69
2023/10/05 08:18:03;;;;;;;11.35;4.85;;;;;;;18.86;72.87;97648.25;5002580;28;20048;-68
2023/10/05 08:20:29;;;;;;;10.68;4.43;;;;;;;18.62;74.27;97657.34;5009285;28;20104;-69
2023/10/05 08:22:56;;;;;;;10.63;4.55;;;;;;;18.21;75.52;97641.09;5011668;28;20045;-69
2023/10/05 08:25:22;;;;;;;10.50;4.22;;;;;;;18.41;76.57;97627.66;5008320;28;20814;-68
2023/10/05 08:27:48;;;;;;;9.20;4.10;;;;;;;18.99;73.70;97639.50;5009901;28;20043;-68
2023/10/05 08:30:14;;;;;;;11.93;4.70;;;;;;;18.56;74.42;97640.31;5009987;28;20476;-68
2023/10/05 08:32:40;;;;;;;8.15;4.38;;;;;;;18.63;76.44;97647.84;5010828;28;20037;-68
2023/10/05 08:35:12;;;;;;;7.88;4.35;;;;;;;18.40;77.25;97653.78;5003883;28;20484;-68
2023/10/05 08:37:42;;;;;;;11.13;4.85;;;;;;;18.37;78.00;97643.50;5019764;28;20033;-68
2023/10/05 08:43:16;;;;;;;10.80;4.40;;;;;;;17.18;85.40;97638.38;5001703;28;20475;-67
2023/10/05 08:45:47;;;;;;;9.57;4.72;;;;;;;16.72;92.07;97638.84;5025010;28;20046;-68
2023/10/05 08:48:35;;;;;;;12.40;5.28;;;;;;;17.46;86.90;97636.91;5007712;28;20055;-67
2023/10/05 08:51:12;;;;;;;13.15;4.47;;;;;;;17.94;83.67;97650.56;5008890;28;20050;-67
2023/10/05 08:53:43;;;;;;;11.10;4.72;;;;;;;18.46;81.17;97652.22;5003834;28;20050;-68
2023/10/05 08:56:13;;;;;;;11.95;3.97;;;;;;;19.41;77.02;97666.38;5003933;28;20042;-68
2023/10/05 08:58:42;;;;;;;10.02;4.25;;;;;;;20.52;67.41;97678.13;5011346;28;20053;-68
2023/10/05 09:01:31;;;;;;;13.90;4.93;;;;;;;21.03;63.70;97689.66;5003732;28;20543;-69
2023/10/05 09:04:01;;;;;;;6.40;3.90;;;;;;;21.50;62.37;97687.19;5014081;28;20052;-68
2023/10/05 09:06:30;;;;;;;11.05;4.15;;;;;;;22.08;58.46;97688.06;5013377;28;20042;-69
2023/10/05 09:11:32;;;;;;;7.38;3.70;;;;;;;22.26;57.14;97685.06;5015261;28;20049;-69
2023/10/05 09:14:12;;;;;;;12.57;4.13;;;;;;;22.69;54.10;97692.00;5017441;28;20050;-68
2023/10/05 09:16:43;;;;;;;9.75;4.20;;;;;;;22.60;55.00;97686.94;5010846;28;20042;-68
2023/10/05 09:19:13;;;;;;;12.52;4.53;;;;;;;23.19;53.60;97691.16;5010180;28;20037;-69
2023/10/05 09:21:50;;;;;;;9.48;4.18;;;;;;;23.92;50.67;97696.94;5014086;28;20052;-69
2023/10/05 09:24:20;;;;;;;8.23;3.75;;;;;;;24.09;48.79;97697.78;5006775;28;20053;-69
2023/10/05 09:26:55;;;;;;;11.18;4.65;;;;;;;19.97;61.78;97691.56;5013441;28;20527;-69
2023/10/05 09:29:23;;;;;;;12.63;4.53;;;;;;;21.73;58.59;97684.53;5012276;28;20110;-68
2023/10/05 09:31:57;;;;;;;10.25;4.72;;;;;;;21.26;58.94;97680.66;5006645;28;20046;-69
2023/10/05 09:34:36;;;;;;;10.73;4.68;;;;;;;21.71;58.32;97680.56;5011158;28;20041;-68
2023/10/05 09:37:05;;;;;;;12.70;4.38;;;;;;;22.22;57.12;97670.34;5004635;28;20057;-67
2023/10/05 09:39:42;;;;;;;9.50;4.43;;;;;;;22.39;56.64;97679.69;5012004;28;20520;-67
2023/10/05 09:42:13;;;;;;;9.93;4.53;;;;;;;22.98;54.57;97678.31;5010863;28;20647;-68
2023/10/05 09:44:45;;;;;;;7.78;4.63;;;;;;;23.82;51.11;97683.97;5014463;28;20042;-68
2023/10/05 09:47:13;;;;;;;9.65;4.80;;;;;;;23.70;50.47;97688.19;5009960;28;20053;-68
2023/10/05 09:49:39;;;;;;;9.25;5.20;;;;;;;23.30;51.42;97688.19;5015284;28;20132;-69
2023/10/05 09:52:08;;;;;;;12.30;4.55;;;;;;;23.45;51.81;97683.88;5005558;28;20053;-68
2023/10/05 09:54:36;;;;;;;10.43;5.05;;;;;;;23.05;53.01;97683.81;5010496;28;20049;-68
2023/10/05 09:57:10;;;;;;;11.77;5.43;;;;;;;22.44;54.80;97681.22;5013277;28;20043;-69
2023/10/05 09:59:38;;;;;;;13.75;5.25;;;;;;;22.83;54.37;97680.59;5018498;28;20053;-69
2023/10/05 10:02:04;;;;;;;11.00;4.32;;;;;;;23.59;52.69;97670.84;5011230;28;20491;-67
2023/10/05 10:04:35;;;;;;;9.75;4.55;;;;;;;23.25;51.72;97667.09;5012023;28;20057;-68
2023/10/05 10:07:09;;;;;;;10.50;4.32;;;;;;;22.88;52.85;97652.16;5014656;28;20503;-68
2023/10/05 10:09:35;;;;;;;10.98;4.70;;;;;;;22.81;53.25;97646.69;5013655;28;20052;-68
2023/10/05 10:12:00;;;;;;;9.35;5.43;;;;;;;21.92;56.89;97637.69;5011092;28;20046;-68
2023/10/05 10:14:26;;;;;;;11.52;5.60;;;;;;;21.53;59.21;97644.56;5012202;28;20079;-68
2023/10/05 10:17:00;;;;;;;9.02;4.70;;;;;;;21.79;56.87;97640.25;5009195;28;20501;-68
2023/10/05 10:19:26;;;;;;;8.27;5.05;;;;;;;22.69;55.15;97639.72;5005849;28;20057;-68
2023/10/05 10:22:10;;;;;;;11.68;5.47;;;;;;;23.19;54.16;97634.47;5013316;28;20045;-68
2023/10/05 10:24:37;;;;;;;11.57;4.80;;;;;;;24.23;48.90;97635.09;5013438;28;20523;-67
2023/10/05 10:27:11;;;;;;;11.00;5.53;;;;;;;23.71;51.33;97647.81;5010878;28;20046;-67
2023/10/05 10:29:54;;;;;;;11.70;6.13;;;;;;;22.80;54.04;97631.16;5011754;28;20041;-68
2023/10/05 10:32:31;;;;;;;10.82;5.40;;;;;;;21.33;59.57;97624.88;5009799;28;20420;-67
2023/10/05 10:35:09;;;;;;;9.38;5.30;;;;;;;21.68;59.12;97622.84;5010953;28;20531;-67
2023/10/05 10:37:49;;;;;;;10.98;6.10;;;;;;;21.55;59.50;97619.84;5009956;28;20615;-69
2023/10/05 10:42:50;;;;;;;9.68;5.15;;;;;;;20.90;62.59;97606.63;5015491;28;20041;-68
2023/10/05 10:45:16;;;;;;;11.35;5.32;;;;;;;21.11;60.59;97611.19;5009124;28;20049;-68
2023/10/05 10:47:47;;;;;;;8.73;4.20;;;;;;;21.91;57.63;97611.81;5017279;28;20416;-68
2023/10/05 10:50:22;;;;;;;12.82;6.40;;;;;;;22.11;56.71;97614.69;4995041;28;20557;-68
2023/10/05 10:52:50;;;;;;;14.30;6.43;;;;;;;22.14;57.92;97608.25;5008118;28;20069;-68
2023/10/05 10:55:16;;;;;;;19.65;7.40;;;;;;;18.90;72.90;97601.06;5011151;28;20081;-69
2023/10/05 10:57:47;;;;;;;14.02;6.03;;;;;;;18.67;79.85;97604.22;5012950;28;20045;-68
2023/10/05 11:02:58;;;;;;;10.50;4.68;;;;;;;20.90;66.31;97619.75;5005453;28;20455;-67
2023/10/05 11:05:47;;;;;;;9.63;4.35;;;;;;;22.19;58.71;97609.78;5002506;28;20069;-68
2023/10/05 11:08:20;;;;;;;11.27;4.93;;;;;;;22.56;56.11;97618.41;5008733;28;20132;-68
2023/10/05 11:10:58;;;;;;;11.40;4.53;;;;;;;22.57;54.75;97612.41;5012872;28;20050;-67
2023/10/05 11:13:25;;;;;;;8.70;4.35;;;;;;;22.53;54.01;97614.47;5004113;28;20041;-71
2023/10/05 11:15:58;;;;;;;11.88;4.28;;;;;;;22.76;54.08;97615.66;4997670;28;20153;-69
2023/10/05 11:18:39;;;;;;;9.13;4.30;;;;;;;21.88;54.70;97614.66;5015111;28;20925;-68
2023/10/05 11:21:16;;;;;;;9.10;3.80;;;;;;;22.60;54.06;97605.97;5005263;28;20096;-69
2023/10/05 11:23:47;;;;;;;16.95;3.90;;;;;;;23.33;51.60;97608.25;5010318;28;20042;-67
2023/10/05 11:26:34;;;;;;;8.02;3.33;;;;;;;23.41;51.32;97613.28;5008107;28;20133;-69
2023/10/05 11:29:15;;;;;;;6.95;3.33;;;;;;;23.51;50.78;97611.47;5017892;28;20034;-69
2023/10/05 11:31:40;;;;;;;6.95;3.70;;;;;;;22.80;51.44;97608.81;5010689;28;20057;-69
2023/10/05 11:34:10;;;;;;;9.45;3.55;;;;;;;22.76;51.63;97605.31;5012191;28;20502;-69
2023/10/05 11:40:00;;;;;;;12.82;2.97;;;;;;;22.86;49.63;97606.31;5005533;28;20046;-68
2023/10/05 11:42:27;;;;;;;7.53;3.05;;;;;;;22.88;50.39;97609.47;5008891;28;20049;-68
2023/10/05 11:45:12;;;;;;;7.82;2.97;;;;;;;22.70;50.90;97610.56;5009288;28;20500;-68
2023/10/05 11:47:41;;;;;;;7.78;3.15;;;;;;;22.95;49.96;97614.16;5008790;28;20137;-67
2023/10/05 11:50:24;;;;;;;8.52;2.97;;;;;;;21.51;53.30;97602.38;4999685;28;20083;-68
2023/10/05 11:52:52;;;;;;;7.65;2.83;;;;;;;21.72;53.53;97596.53;5004001;28;20045;-68
2023/10/05 11:55:19;;;;;;;7.50;3.47;;;;;;;21.90;52.77;97587.91;5002248;28;20045;-69
2023/10/05 11:57:44;;;;;;;5.95;3.30;;;;;;;21.79;53.24;97589.25;5008601;28;20045;-68
2023/10/05 12:00:13;;;;;;;7.18;2.80;;;;;;;22.05;51.13;97576.53;5007412;28;20518;-69
2023/10/05 12:02:38;;;;;;;5.88;2.47;;;;;;;22.06;50.81;97581.69;5012504;28;20042;-68